Time;durP1;ratioP1;P1;durP2;ratioP2;P2;SDS_P1;SDS_P2;PMS_P1;PMS_P2;Temp;Humidity;BMP_temperature;BMP_pressure;BME280_temperature;BME280_humidity;BME280_pressure;Samples;Min_cycle;Max_cycle;Signal;HPM_P1;HPM_P2
2021/01/12 11:39:20;;;;;;;2.70;1.90;;;11.00;99.90;;;;;;6174545;23;20662;-76
2021/01/12 11:42:46;;;;;;;3.83;3.03;;;11.00;99.90;;;;;;6180622;23;20208;-75
2021/01/12 11:45:57;;;;;;;1.95;1.33;;;11.00;99.90;;;;;;6181097;23;20208;-75
2021/01/12 11:52:46;;;;;;;2.85;1.73;;;10.90;99.90;;;;;;6078422;23;20173;-76
2021/01/12 11:55:30;;;;;;;1.50;1.17;;;10.80;99.90;;;;;;6133590;23;20490;-75
2021/01/12 11:58:52;;;;;;;4.90;1.30;;;10.80;99.90;;;;;;6162575;23;20562;-76
2021/01/12 12:01:21;;;;;;;3.13;1.08;;;10.70;99.90;;;;;;6154990;23;20690;-75
2021/01/12 12:03:49;;;;;;;1.70;0.82;;;10.60;99.90;;;;;;6106528;23;20175;-76
2021/01/12 12:07:03;;;;;;;1.50;0.80;;;10.50;99.90;;;;;;6160094;23;20240;-76
2021/01/12 12:21:55;;;;;;;2.42;1.10;;;10.20;99.90;;;;;;6137822;23;20323;-75
2021/01/12 12:24:23;;;;;;;1.83;0.90;;;10.20;99.90;;;;;;6154262;23;20149;-75
2021/01/12 12:26:52;;;;;;;1.40;0.80;;;10.10;99.90;;;;;;6154790;23;20146;-75
2021/01/12 12:29:19;;;;;;;2.70;1.20;;;10.10;99.90;;;;;;6179843;23;20539;-75
2021/01/12 12:31:44;;;;;;;2.42;1.08;;;10.00;99.90;;;;;;6180645;23;20145;-75
2021/01/12 12:34:11;;;;;;;2.13;0.90;;;10.00;99.90;;;;;;6153754;23;20225;-77
2021/01/12 12:36:37;;;;;;;2.97;1.48;;;10.00;99.90;;;;;;6154780;23;20502;-75
2021/01/12 12:39:04;;;;;;;2.58;1.05;;;10.00;99.90;;;;;;6180017;23;20165;-75
2021/01/12 12:41:34;;;;;;;1.92;1.00;;;10.00;99.90;;;;;;6152513;23;20256;-74
2021/01/12 12:44:00;;;;;;;2.38;0.70;;;10.00;99.90;;;;;;6153970;23;20152;-75
2021/01/12 12:46:27;;;;;;;1.33;0.70;;;10.00;99.90;;;;;;6156589;23;20142;-75
2021/01/12 12:48:54;;;;;;;1.35;0.80;;;10.00;99.90;;;;;;6179868;23;20197;-75
2021/01/12 12:51:20;;;;;;;1.30;0.90;;;10.00;99.90;;;;;;6180536;23;20145;-75
2021/01/12 12:53:48;;;;;;;1.38;0.70;;;9.90;99.90;;;;;;6154310;23;20146;-75
2021/01/12 12:56:18;;;;;;;1.30;0.60;;;10.00;99.90;;;;;;6154137;23;20256;-75
2021/01/12 12:58:44;;;;;;;0.97;0.50;;;9.90;99.90;;;;;;6179203;23;20204;-76
2021/01/12 13:01:13;;;;;;;1.30;0.60;;;9.90;99.90;;;;;;6180345;23;20169;-76
2021/01/12 13:03:40;;;;;;;1.08;0.60;;;9.80;99.90;;;;;;6181135;23;20158;-75
2021/01/12 13:06:06;;;;;;;1.00;0.60;;;9.80;99.90;;;;;;6130260;23;20150;-75
2021/01/12 13:08:33;;;;;;;1.13;0.60;;;9.80;99.90;;;;;;6152088;23;20197;-75
2021/01/12 13:11:01;;;;;;;1.00;0.60;;;9.80;99.90;;;;;;6104939;23;20154;-76
2021/01/12 13:13:28;;;;;;;1.88;0.70;;;9.80;99.90;;;;;;6154186;23;20505;-76
2021/01/12 13:15:54;;;;;;;1.30;0.60;;;9.80;99.90;;;;;;6154625;23;20158;-76
2021/01/12 13:18:28;;;;;;;1.50;0.70;;;9.80;99.90;;;;;;6178993;23;20162;-75
2021/01/12 13:20:57;;;;;;;1.50;0.70;;;9.80;99.90;;;;;;6181302;23;20169;-75
2021/01/12 13:23:24;;;;;;;1.10;0.60;;;9.80;99.90;;;;;;6183772;23;20189;-75
2021/01/12 13:25:51;;;;;;;1.90;0.60;;;9.90;99.90;;;;;;6156206;23;20196;-76
2021/01/12 13:28:17;;;;;;;1.30;0.70;;;9.80;99.90;;;;;;6155379;23;20165;-76
2021/01/12 13:30:44;;;;;;;2.85;0.70;;;9.80;99.90;;;;;;6182331;23;20130;-75
2021/01/12 13:33:12;;;;;;;3.10;0.60;;;9.90;99.90;;;;;;6181966;23;20258;-76
2021/01/12 13:35:39;;;;;;;2.28;0.82;;;9.90;99.90;;;;;;6131860;23;20168;-76
2021/01/12 13:38:05;;;;;;;1.30;0.80;;;9.90;99.90;;;;;;6155690;23;20177;-75
2021/01/12 13:40:31;;;;;;;2.25;0.80;;;9.90;99.90;;;;;;6182238;23;20591;-76
2021/01/12 13:43:00;;;;;;;1.10;0.70;;;9.90;99.90;;;;;;6155399;23;20204;-76
2021/01/12 13:45:30;;;;;;;1.80;0.50;;;9.80;99.90;;;;;;6131580;23;20548;-76
2021/01/12 13:47:57;;;;;;;1.00;0.50;;;9.70;99.90;;;;;;6130429;23;20173;-75
2021/01/12 13:50:24;;;;;;;1.42;0.60;;;9.50;99.90;;;;;;6155625;23;20513;-75
2021/01/12 13:52:50;;;;;;;1.00;0.45;;;9.40;99.90;;;;;;6182093;23;20481;-76
2021/01/12 13:55:18;;;;;;;2.28;1.60;;;9.20;99.90;;;;;;6182201;23;20150;-75
2021/01/12 13:58:02;;;;;;;1.55;0.50;;;9.10;99.90;;;;;;6155014;23;20284;-76
2021/01/12 14:00:28;;;;;;;1.67;0.60;;;9.10;99.90;;;;;;6133831;23;20142;-76
2021/01/12 14:02:56;;;;;;;5.45;0.60;;;9.00;99.90;;;;;;6155771;23;20181;-76
2021/01/12 14:05:24;;;;;;;1.10;0.60;;;9.00;99.90;;;;;;6182231;23;20130;-76
2021/01/12 14:07:50;;;;;;;2.40;0.75;;;8.90;99.90;;;;;;6155280;23;20576;-76
2021/01/12 14:10:16;;;;;;;1.63;0.60;;;8.90;99.90;;;;;;6155262;23;20153;-76
2021/01/12 14:12:42;;;;;;;1.70;0.60;;;8.90;99.90;;;;;;6159322;23;20156;-77
2021/01/12 14:15:09;;;;;;;2.13;0.65;;;8.90;99.90;;;;;;6181936;23;20146;-75
2021/01/12 14:17:47;;;;;;;1.30;0.60;;;9.00;99.90;;;;;;6181709;23;20508;-76
2021/01/12 14:20:14;;;;;;;2.55;0.80;;;8.90;99.90;;;;;;6181939;23;20134;-77
2021/01/12 14:22:41;;;;;;;1.20;0.65;;;8.90;99.90;;;;;;6182043;23;20563;-76
2021/01/12 14:25:08;;;;;;;2.88;0.70;;;8.90;99.90;;;;;;6155531;23;20149;-75
2021/01/12 14:27:38;;;;;;;1.30;0.70;;;9.00;99.90;;;;;;6155265;23;20223;-76
2021/01/12 14:30:09;;;;;;;1.67;0.88;;;8.90;99.90;;;;;;6182003;23;20164;-76
2021/01/12 14:32:36;;;;;;;1.70;0.50;;;8.80;99.90;;;;;;6130881;23;20138;-76
2021/01/12 14:35:03;;;;;;;1.50;0.50;;;8.80;99.90;;;;;;6130970;23;20142;-76
2021/01/12 14:37:42;;;;;;;2.10;0.80;;;8.70;99.90;;;;;;6157316;23;20169;-76
2021/01/12 14:40:13;;;;;;;1.17;0.70;;;8.60;99.90;;;;;;6181750;23;20196;-76
2021/01/12 14:42:43;;;;;;;2.00;0.80;;;8.50;99.90;;;;;;6155341;23;20178;-76
2021/01/12 14:45:12;;;;;;;4.05;0.70;;;8.40;99.90;;;;;;6155374;23;20216;-76
2021/01/12 14:47:42;;;;;;;1.45;0.77;;;8.40;99.90;;;;;;6155187;23;20709;-76
2021/01/12 14:50:09;;;;;;;1.65;0.80;;;8.30;99.90;;;;;;6155214;23;20146;-76
2021/01/12 14:52:35;;;;;;;3.28;0.80;;;8.30;99.90;;;;;;6155832;23;20157;-75
2021/01/12 14:55:01;;;;;;;2.75;0.80;;;8.20;99.90;;;;;;6155369;23;20229;-75
2021/01/12 14:57:30;;;;;;;1.80;0.60;;;8.20;99.90;;;;;;6181379;23;20166;-76
2021/01/12 14:59:56;;;;;;;3.50;0.70;;;8.10;99.90;;;;;;6155025;23;20158;-76
2021/01/12 15:02:22;;;;;;;2.37;0.63;;;8.00;99.90;;;;;;6181269;23;20201;-75
2021/01/12 15:04:50;;;;;;;2.00;0.55;;;7.90;99.90;;;;;;6155257;23;20623;-75
2021/01/12 15:07:19;;;;;;;1.67;0.70;;;7.90;99.90;;;;;;6131235;23;20232;-75
2021/01/12 15:09:48;;;;;;;3.93;0.60;;;7.80;99.90;;;;;;6181254;23;20146;-75
2021/01/12 15:12:14;;;;;;;2.78;0.70;;;7.80;99.90;;;;;;6155410;23;20608;-76
2021/01/12 15:14:40;;;;;;;2.03;0.75;;;7.70;99.90;;;;;;6155995;23;20471;-76
2021/01/12 15:17:06;;;;;;;2.75;0.70;;;7.70;99.90;;;;;;6181265;23;20146;-76
2021/01/12 15:19:32;;;;;;;2.85;0.80;;;7.70;99.90;;;;;;6180385;23;20497;-77
2021/01/12 15:21:58;;;;;;;2.97;1.33;;;7.60;99.90;;;;;;6181557;23;20248;-77
2021/01/12 15:24:24;;;;;;;3.70;2.10;;;7.60;99.90;;;;;;6180344;23;20146;-75
2021/01/12 15:26:53;;;;;;;3.33;0.80;;;7.70;99.90;;;;;;6188695;23;20941;-80
2021/01/12 15:29:44;;;;;;;3.72;0.60;;;7.60;99.90;;;;;;6154405;23;20180;-77
2021/01/12 15:32:50;;;;;;;5.43;0.77;;;7.70;99.90;;;;;;6162236;23;20134;-75
2021/01/12 15:35:30;;;;;;;4.53;1.40;;;7.70;99.90;;;;;;6181363;23;20188;-77
2021/01/12 15:38:35;;;;;;;1.45;0.70;;;7.70;99.90;;;;;;6179826;23;20181;-81
2021/01/12 15:41:28;;;;;;;4.10;1.20;;;7.60;99.90;;;;;;6166846;23;20692;-78
2021/01/12 15:57:00;;;;;;;4.22;2.50;;;7.50;99.90;;;;;;6145690;23;21092;-78
2021/01/12 15:59:32;;;;;;;5.80;2.10;;;7.20;99.90;;;;;;6153284;23;20715;-77
2021/01/12 16:02:08;;;;;;;4.43;3.30;;;7.10;99.90;;;;;;6155269;23;20184;-77
2021/01/12 16:04:49;;;;;;;6.30;3.53;;;7.20;99.90;;;;;;6156681;23;20765;-78
2021/01/12 16:07:27;;;;;;;9.15;4.32;;;7.20;99.90;;;;;;6161158;23;20683;-76
2021/01/12 16:10:04;;;;;;;9.05;4.22;;;7.10;99.90;;;;;;6181349;23;20154;-76
2021/01/12 16:13:00;;;;;;;4.47;1.80;;;7.10;99.90;;;;;;6156621;23;20212;-78
2021/01/12 16:15:39;;;;;;;5.82;2.30;;;7.10;99.90;;;;;;6133524;23;20672;-78
2021/01/12 16:18:08;;;;;;;5.72;2.03;;;7.00;99.90;;;;;;6159953;23;20166;-76
2021/01/12 16:20:34;;;;;;;6.20;2.33;;;6.90;99.90;;;;;;6156607;23;20150;-76
2021/01/12 16:23:04;;;;;;;6.13;3.13;;;6.90;99.90;;;;;;6072568;23;20241;-79
2021/01/12 16:25:33;;;;;;;8.50;4.05;;;6.90;99.90;;;;;;6029816;23;20156;-78
2021/01/12 16:28:03;;;;;;;11.75;5.32;;;6.90;99.90;;;;;;6029671;23;20235;-78
2021/01/12 16:30:31;;;;;;;12.30;6.72;;;6.80;99.90;;;;;;6006070;23;20153;-77
2021/01/12 16:33:01;;;;;;;12.52;7.22;;;6.80;99.90;;;;;;6029910;23;20153;-76
2021/01/12 16:35:29;;;;;;;9.68;6.22;;;6.80;99.90;;;;;;6006186;23;20149;-76
2021/01/12 16:37:56;;;;;;;6.97;4.38;;;6.70;99.90;;;;;;6028514;23;20176;-76
2021/01/12 16:40:24;;;;;;;7.90;2.65;;;6.70;99.90;;;;;;6028962;23;20153;-75
2021/01/12 16:42:54;;;;;;;12.35;3.83;;;6.60;99.90;;;;;;6029746;23;20173;-76
2021/01/12 16:45:26;;;;;;;8.07;3.88;;;6.60;99.90;;;;;;5982969;23;20152;-75
2021/01/12 16:48:16;;;;;;;8.93;4.40;;;6.50;99.90;;;;;;6015233;23;20180;-76
2021/01/12 16:50:47;;;;;;;5.22;2.70;;;6.50;99.90;;;;;;6029207;23;20133;-76
2021/01/12 16:53:28;;;;;;;9.95;3.88;;;6.40;99.90;;;;;;6009059;23;20140;-75
2021/01/12 16:56:06;;;;;;;7.10;3.70;;;6.30;99.90;;;;;;6030471;23;20149;-76
2021/01/12 16:58:36;;;;;;;7.80;2.55;;;6.30;99.90;;;;;;6007208;23;20169;-76
2021/01/12 17:01:03;;;;;;;4.85;2.63;;;6.30;99.90;;;;;;6007518;23;20149;-76
2021/01/12 17:03:37;;;;;;;7.75;3.80;;;6.30;99.90;;;;;;6031335;23;20134;-76
2021/01/12 17:06:03;;;;;;;10.90;5.70;;;6.30;99.90;;;;;;6037874;23;20245;-76
2021/01/12 17:08:39;;;;;;;7.78;3.28;;;6.30;99.90;;;;;;6008010;23;20161;-76
2021/01/12 17:11:14;;;;;;;13.50;5.28;;;6.30;99.90;;;;;;6030118;23;20558;-77
2021/01/12 17:13:47;;;;;;;11.02;5.20;;;6.40;99.90;;;;;;6008756;23;20134;-76
2021/01/12 17:16:18;;;;;;;11.52;5.85;;;6.50;99.90;;;;;;6030685;23;20141;-76
2021/01/12 17:18:45;;;;;;;13.55;7.65;;;6.50;99.90;;;;;;6031092;23;20170;-76
2021/01/12 17:21:14;;;;;;;9.07;5.50;;;6.60;99.90;;;;;;6005573;23;20203;-77
2021/01/12 17:23:50;;;;;;;8.98;5.05;;;6.60;99.90;;;;;;6005924;23;20165;-76
2021/01/12 17:26:19;;;;;;;9.77;3.60;;;6.70;99.90;;;;;;6029682;23;20161;-77
2021/01/12 17:28:54;;;;;;;8.23;3.70;;;6.70;99.90;;;;;;6029542;23;20169;-76
2021/01/12 17:31:24;;;;;;;9.85;5.47;;;6.70;99.90;;;;;;6030501;23;20684;-76
2021/01/12 17:34:15;;;;;;;9.07;4.50;;;6.80;99.90;;;;;;6030553;23;20134;-76
2021/01/12 17:36:50;;;;;;;8.55;4.22;;;6.80;99.90;;;;;;6029293;23;20141;-76
2021/01/12 17:39:38;;;;;;;10.68;5.32;;;6.80;99.90;;;;;;6031080;23;20588;-76
2021/01/12 18:01:32;;;;;;;8.20;1.60;;;7.10;99.90;;;;;;6061336;23;20599;-74
2021/01/12 18:04:49;;;;;;;3.00;1.10;;;7.20;99.90;;;;;;6106326;23;20193;-74
2021/01/12 18:12:20;;;;;;;5.55;1.45;;;7.40;99.90;;;;;;6180053;23;20164;-74
2021/01/12 18:15:31;;;;;;;3.45;1.33;;;7.40;99.90;;;;;;6107240;23;20619;-76
2021/01/12 18:18:57;;;;;;;1.70;0.90;;;7.40;99.90;;;;;;6061450;23;20170;-74
2021/01/12 18:21:58;;;;;;;3.20;1.10;;;7.40;99.90;;;;;;6157635;23;20718;-74
2021/01/12 18:24:29;;;;;;;5.53;2.10;;;7.30;99.90;;;;;;6106483;23;20658;-74
2021/01/12 18:27:08;;;;;;;7.15;1.83;;;7.30;99.90;;;;;;6132614;23;20527;-74
2021/01/12 18:29:49;;;;;;;9.57;3.47;;;7.30;99.90;;;;;;6154732;23;20146;-74
2021/01/12 18:32:18;;;;;;;6.95;2.55;;;7.20;99.90;;;;;;6154916;23;20134;-75
2021/01/12 18:34:50;;;;;;;4.18;2.10;;;7.20;99.90;;;;;;6130002;23;20162;-74
2021/01/12 18:37:25;;;;;;;4.35;1.60;;;7.20;99.90;;;;;;6130704;23;20703;-75
2021/01/12 18:40:01;;;;;;;6.05;1.23;;;7.10;99.90;;;;;;6130449;23;20153;-75
2021/01/12 18:42:30;;;;;;;6.57;1.17;;;7.10;99.90;;;;;;6129938;23;20177;-76
2021/01/12 18:45:04;;;;;;;8.40;2.20;;;7.00;99.90;;;;;;6130141;23;20637;-75
2021/01/12 18:47:48;;;;;;;6.22;2.00;;;7.00;99.90;;;;;;6129408;23;20471;-74
2021/01/12 18:50:15;;;;;;;8.38;2.47;;;6.90;99.90;;;;;;6180308;23;20149;-75
2021/01/12 18:52:41;;;;;;;4.90;1.38;;;6.80;99.90;;;;;;6105092;23;20174;-74
2021/01/12 18:55:10;;;;;;;3.42;1.98;;;6.80;99.90;;;;;;6154271;23;20184;-74
2021/01/12 18:57:38;;;;;;;7.18;2.40;;;6.70;99.90;;;;;;6129288;23;20162;-75
2021/01/12 19:00:18;;;;;;;7.57;2.33;;;6.70;99.90;;;;;;6132318;23;20134;-75
2021/01/12 19:02:48;;;;;;;5.23;1.80;;;6.60;99.90;;;;;;5658336;23;8146090;-74
2021/01/12 19:05:16;;;;;;;5.63;2.30;;;6.50;99.90;;;;;;5984454;23;20160;-73
2021/01/12 19:07:44;;;;;;;4.50;2.10;;;6.50;99.90;;;;;;5983442;23;20184;-75
2021/01/12 19:10:10;;;;;;;7.05;2.40;;;6.40;99.90;;;;;;5983214;23;20232;-74
2021/01/12 19:12:39;;;;;;;9.65;3.22;;;6.40;99.90;;;;;;5984337;23;20520;-74
2021/01/12 19:15:08;;;;;;;7.15;2.75;;;6.30;99.90;;;;;;5984324;23;20157;-75
2021/01/12 19:17:48;;;;;;;7.30;1.75;;;6.20;99.90;;;;;;6007081;23;20149;-74
2021/01/12 19:20:32;;;;;;;3.22;1.80;;;6.20;99.90;;;;;;5983755;23;20165;-74
2021/01/12 19:22:58;;;;;;;7.68;2.10;;;6.20;99.90;;;;;;6017158;23;20189;-74
2021/01/12 19:28:33;;;;;;;6.43;1.83;;;6.00;99.90;;;;;;6011269;23;20157;-75
2021/01/12 19:31:48;;;;;;;6.00;3.20;;;6.00;99.90;;;;;;6016802;23;20161;-76
2021/01/12 19:34:35;;;;;;;7.95;3.10;;;6.00;99.90;;;;;;6034401;23;20309;-75
2021/01/12 19:37:22;;;;;;;10.20;3.50;;;5.90;99.90;;;;;;5984622;23;20153;-75
2021/01/12 19:40:29;;;;;;;6.28;3.25;;;5.90;99.90;;;;;;6014819;23;20161;-75
2021/01/12 19:43:21;;;;;;;7.63;5.07;;;5.90;99.90;;;;;;5984335;23;20569;-75
2021/01/12 19:45:54;;;;;;;7.18;4.55;;;5.80;99.90;;;;;;6004318;23;20153;-76
2021/01/12 19:48:44;;;;;;;7.43;4.20;;;5.80;99.90;;;;;;5986964;23;20196;-75
2021/01/12 19:51:19;;;;;;;7.80;4.38;;;5.80;99.90;;;;;;5984469;23;20753;-76
2021/01/12 19:53:49;;;;;;;10.48;5.10;;;5.70;99.90;;;;;;5983688;23;20177;-75
2021/01/12 19:56:20;;;;;;;6.53;4.32;;;5.60;99.90;;;;;;6006776;23;20165;-75
2021/01/12 19:58:49;;;;;;;6.20;3.60;;;5.60;99.90;;;;;;6006107;23;20671;-75
2021/01/12 20:01:17;;;;;;;10.23;3.90;;;5.60;99.90;;;;;;5983009;23;20311;-76
2021/01/12 20:03:46;;;;;;;10.43;4.10;;;5.60;99.90;;;;;;5982901;23;20208;-76
2021/01/12 20:06:12;;;;;;;8.02;2.92;;;5.50;99.90;;;;;;5983142;23;20154;-76
2021/01/12 20:08:44;;;;;;;6.03;2.55;;;5.50;99.90;;;;;;6006797;23;20160;-76
2021/01/12 20:11:13;;;;;;;4.50;2.22;;;5.50;99.90;;;;;;6126435;23;20149;-76
2021/01/12 20:13:42;;;;;;;6.20;2.03;;;5.40;99.90;;;;;;6007353;23;20563;-74
2021/01/12 20:16:09;;;;;;;4.65;2.03;;;5.40;99.90;;;;;;5983698;23;20157;-77
2021/01/12 20:18:40;;;;;;;7.30;2.20;;;5.40;99.90;;;;;;6006126;23;20164;-75
2021/01/12 20:21:15;;;;;;;2.00;1.10;;;5.40;99.90;;;;;;5983327;23;20153;-76
2021/01/12 20:23:49;;;;;;;4.30;1.60;;;5.40;99.90;;;;;;6029986;23;20192;-76
2021/01/12 20:26:21;;;;;;;4.70;2.15;;;5.40;99.90;;;;;;6030440;23;20145;-76
2021/01/12 20:28:48;;;;;;;7.47;2.38;;;5.40;99.90;;;;;;6006184;23;20150;-76
2021/01/12 20:31:20;;;;;;;10.23;2.50;;;5.40;99.90;;;;;;6007226;23;20156;-76
2021/01/12 20:33:52;;;;;;;4.85;1.90;;;5.40;99.90;;;;;;5984337;23;20226;-76
2021/01/12 20:36:24;;;;;;;11.73;4.22;;;5.40;99.90;;;;;;6007582;23;20628;-76
2021/01/12 20:38:50;;;;;;;6.05;2.55;;;5.30;99.90;;;;;;5983600;23;20149;-75
2021/01/12 20:41:22;;;;;;;6.05;2.40;;;5.30;99.90;;;;;;5983832;23;20149;-75
2021/01/12 20:43:51;;;;;;;4.85;2.50;;;5.30;99.90;;;;;;5984079;23;20184;-76
2021/01/12 20:46:17;;;;;;;4.25;1.85;;;5.30;99.90;;;;;;6007656;23;20484;-76
2021/01/12 20:48:43;;;;;;;5.57;1.73;;;5.30;99.90;;;;;;5983530;23;20160;-75
2021/01/12 20:51:19;;;;;;;5.13;2.00;;;5.30;99.90;;;;;;5984824;23;20153;-76
2021/01/12 20:53:47;;;;;;;4.32;2.00;;;5.30;99.90;;;;;;6007413;23;20278;-76
2021/01/12 20:56:13;;;;;;;5.72;2.67;;;5.30;99.90;;;;;;5984257;23;20243;-75
2021/01/12 20:58:42;;;;;;;3.58;2.88;;;5.20;99.90;;;;;;6005876;23;20243;-75
2021/01/12 21:01:08;;;;;;;6.65;2.50;;;5.20;99.90;;;;;;6005920;23;20789;-75
2021/01/12 21:03:35;;;;;;;7.50;2.88;;;5.20;99.90;;;;;;6007370;23;20223;-76
2021/01/12 21:06:01;;;;;;;5.60;3.10;;;5.10;99.90;;;;;;6007339;23;20149;-75
2021/01/12 21:08:39;;;;;;;8.65;4.20;;;5.10;99.90;;;;;;5983758;23;20153;-76
2021/01/12 21:11:08;;;;;;;9.20;4.05;;;5.10;99.90;;;;;;5983577;23;20156;-75
2021/01/12 21:13:34;;;;;;;5.28;3.40;;;5.00;99.90;;;;;;5983738;23;20180;-75
2021/01/12 21:16:03;;;;;;;8.80;4.20;;;5.10;99.90;;;;;;6007356;23;20142;-76
2021/01/12 21:18:29;;;;;;;5.47;3.85;;;5.00;99.90;;;;;;6006732;23;20169;-76
2021/01/12 21:20:55;;;;;;;8.38;3.75;;;5.00;99.90;;;;;;6007329;23;20153;-76
2021/01/12 21:23:24;;;;;;;8.82;2.90;;;4.90;99.90;;;;;;6031244;23;20185;-76
2021/01/12 21:25:53;;;;;;;4.05;2.17;;;4.90;99.90;;;;;;6031536;23;20152;-76
2021/01/12 21:28:20;;;;;;;4.55;2.75;;;4.90;99.90;;;;;;5983793;23;20163;-76
2021/01/12 21:30:56;;;;;;;5.40;2.27;;;4.90;99.90;;;;;;6006512;23;20220;-76
2021/01/12 21:33:24;;;;;;;5.38;2.50;;;4.90;99.90;;;;;;6007209;23;20584;-76
2021/01/12 21:35:51;;;;;;;5.20;2.08;;;4.80;99.90;;;;;;5984340;23;20219;-76
2021/01/12 21:38:19;;;;;;;10.02;3.10;;;4.80;99.90;;;;;;5985179;23;20865;-76
2021/01/12 21:40:48;;;;;;;3.10;2.17;;;4.80;99.90;;;;;;6031739;23;20224;-75
2021/01/12 21:43:14;;;;;;;4.45;2.45;;;4.80;99.90;;;;;;6032657;23;20191;-75
2021/01/12 21:45:45;;;;;;;8.35;2.47;;;4.70;99.90;;;;;;5986506;23;20153;-75
2021/01/12 21:48:11;;;;;;;6.63;2.10;;;4.70;99.90;;;;;;5983533;23;20478;-76
2021/01/12 21:50:37;;;;;;;6.50;2.70;;;4.70;99.90;;;;;;5983424;23;20702;-76
2021/01/12 21:53:11;;;;;;;7.80;2.50;;;4.60;99.90;;;;;;6007294;23;20627;-76
2021/01/12 21:55:40;;;;;;;4.15;2.88;;;4.60;99.90;;;;;;5984205;23;20216;-76
2021/01/12 21:58:06;;;;;;;5.07;2.60;;;4.60;99.90;;;;;;5983452;23;20153;-76
2021/01/12 22:00:32;;;;;;;7.85;3.08;;;4.50;99.90;;;;;;5982444;23;20167;-76
2021/01/12 22:02:58;;;;;;;4.77;2.63;;;4.60;99.90;;;;;;6006713;23;20268;-76
2021/01/12 22:05:49;;;;;;;5.68;2.30;;;4.50;99.90;;;;;;5991650;23;20630;-76
2021/01/12 22:08:17;;;;;;;4.25;2.75;;;4.50;99.90;;;;;;5982796;23;20146;-76
2021/01/12 22:10:44;;;;;;;4.30;2.40;;;4.40;99.90;;;;;;6006610;23;20149;-76
2021/01/12 22:13:15;;;;;;;6.72;4.20;;;4.50;99.90;;;;;;6007540;23;20187;-76
2021/01/12 22:15:41;;;;;;;4.22;1.85;;;4.40;99.90;;;;;;5983712;23;20199;-76
2021/01/12 22:18:22;;;;;;;3.40;2.10;;;4.40;99.90;;;;;;5984922;23;20222;-76
2021/01/12 22:21:07;;;;;;;4.43;2.35;;;4.40;99.90;;;;;;6007227;23;20156;-76
2021/01/12 22:23:39;;;;;;;2.50;1.75;;;4.40;99.90;;;;;;5984805;23;20571;-74
2021/01/12 22:26:18;;;;;;;3.67;1.67;;;4.40;99.90;;;;;;6007854;23;20153;-76
2021/01/12 22:28:47;;;;;;;5.55;2.20;;;4.40;99.90;;;;;;5983782;23;20675;-75
2021/01/12 22:31:17;;;;;;;2.60;2.40;;;4.40;99.90;;;;;;6006963;23;20160;-75
2021/01/12 22:33:43;;;;;;;4.13;2.45;;;4.40;99.90;;;;;;5984022;23;20173;-77
2021/01/12 22:36:13;;;;;;;6.00;3.30;;;4.40;99.90;;;;;;6032368;23;20160;-74
2021/01/12 22:38:39;;;;;;;8.27;2.78;;;4.40;99.90;;;;;;6006631;23;20236;-75
2021/01/12 22:41:08;;;;;;;6.55;3.13;;;4.30;99.90;;;;;;6030389;23;20153;-75
2021/01/12 22:43:39;;;;;;;4.97;2.15;;;4.30;99.90;;;;;;5985286;23;20177;-75
2021/01/12 22:46:05;;;;;;;6.70;2.97;;;4.30;99.90;;;;;;6007282;23;20490;-75
2021/01/12 22:48:34;;;;;;;9.82;2.70;;;4.30;99.90;;;;;;6033012;23;20754;-74
2021/01/12 22:51:00;;;;;;;6.13;2.80;;;4.30;99.90;;;;;;6008835;23;20156;-75
2021/01/12 22:53:28;;;;;;;7.18;2.40;;;4.30;99.90;;;;;;6030908;23;20534;-74
2021/01/12 22:55:57;;;;;;;4.88;2.97;;;4.30;99.90;;;;;;6008255;23;20176;-75
2021/01/12 22:58:23;;;;;;;6.70;2.65;;;4.30;99.90;;;;;;6006578;23;20292;-75
2021/01/12 23:00:53;;;;;;;7.88;3.90;;;4.30;99.90;;;;;;6024024;23;20168;-75
2021/01/12 23:03:27;;;;;;;4.63;2.45;;;4.30;99.90;;;;;;6132481;23;20189;-75
2021/01/12 23:05:56;;;;;;;7.45;2.22;;;4.30;99.90;;;;;;6156251;23;20169;-76
2021/01/12 23:08:22;;;;;;;4.43;1.98;;;4.30;99.90;;;;;;6155683;23;20203;-76
2021/01/12 23:10:49;;;;;;;6.95;2.30;;;4.30;99.90;;;;;;6130676;23;20146;-76
2021/01/12 23:13:15;;;;;;;9.23;2.35;;;4.30;99.90;;;;;;6156016;23;20496;-76
2021/01/12 23:15:41;;;;;;;5.80;2.38;;;4.30;99.90;;;;;;6131517;23;20236;-76
2021/01/12 23:18:07;;;;;;;7.55;2.30;;;4.30;99.90;;;;;;6131090;23;20188;-76
2021/01/12 23:20:34;;;;;;;5.07;2.22;;;4.30;99.90;;;;;;6131157;23;20160;-75
2021/01/12 23:23:01;;;;;;;5.50;2.70;;;4.20;99.90;;;;;;6131342;23;20646;-75
2021/01/12 23:25:27;;;;;;;6.85;2.50;;;4.20;99.90;;;;;;6134621;23;20307;-75
2021/01/12 23:27:54;;;;;;;10.90;2.45;;;4.20;99.90;;;;;;6130366;23;20638;-77
2021/01/12 23:30:27;;;;;;;5.43;2.80;;;4.20;99.90;;;;;;6130762;23;20160;-75
2021/01/12 23:32:59;;;;;;;5.55;2.63;;;4.30;99.90;;;;;;6131937;23;20235;-76
2021/01/12 23:35:33;;;;;;;4.60;2.35;;;4.30;99.90;;;;;;6108198;23;20153;-75
2021/01/12 23:38:10;;;;;;;5.97;2.03;;;4.40;99.90;;;;;;6130770;23;20603;-77
2021/01/12 23:40:40;;;;;;;6.68;2.50;;;4.40;99.90;;;;;;6106664;23;20185;-76
2021/01/12 23:43:42;;;;;;;6.50;2.47;;;4.40;99.90;;;;;;6140564;23;20192;-80
2021/01/12 23:46:18;;;;;;;3.83;2.25;;;4.50;99.90;;;;;;6211800;23;20145;-81
2021/01/12 23:48:49;;;;;;;4.97;2.50;;;4.50;99.90;;;;;;6211533;23;20136;-81
2021/01/12 23:51:16;;;;;;;7.30;2.67;;;4.60;99.90;;;;;;6185703;23;20145;-81
2021/01/12 23:53:42;;;;;;;7.03;3.40;;;4.60;99.90;;;;;;6170424;23;20164;-81
2021/01/12 23:56:20;;;;;;;7.75;3.25;;;4.70;99.90;;;;;;6181923;23;20595;-81
2021/01/12 23:58:50;;;;;;;7.07;2.85;;;4.80;99.90;;;;;;6181252;23;20584;-81
